Latest Weather Observations for Bundaberg

IDQ60801

Issued at 10:32 pm EST Sunday 30 April 2017 (issued every 30 minutes, with the page automatically refreshed every 10 minutes)

About weather observations | Map of weather stations | Latest weather observations for QLD | Other Formats
Station Details ID: 039128 Name: BUNDABERG AERO Lat: -24.91 Lon: 152.32 Height: 30.82 m
Data from the previous 72 hours. | See also: Recent months at Bundaberg
Date/Time
EST
Temp
°C
App
Temp
°C
Dew
Point
°C
Rel
Hum
%
Delta-T
°C
Wind Press
QNH
hPa
Press
MSL
hPa
Rain since
9am
mm
Dir  Spd
km/h
Gust
km/h
Spd
kts
Gust
kts
30/10:30pm 17.4 16.8 15.6 89 1.1 S 13 17 7 9 1019.6 1019.5 0.4
30/10:00pm 17.8 17.5 15.4 86 1.4 S 11 15 6 8 1019.7 1019.6 0.4
30/09:30pm 18.6 18.5 16.0 85 1.5 SSE 11 15 6 8 1020.0 1019.9 0.4
30/09:00pm 18.2 18.3 15.5 84 1.6 S 9 13 5 7 1020.2 1020.1 0.4
30/08:30pm 18.3 18.4 15.4 83 1.7 S 9 11 5 6 1020.0 1019.9 0.4
30/08:00pm 18.8 18.7 15.9 83 1.7 SSE 11 17 6 9 1019.7 1019.6 0.4
30/07:30pm 19.1 19.1 16.3 84 1.7 S 11 15 6 8 1019.2 1019.1 0.4
30/07:00pm 19.6 20.4 16.3 81 2.0 SE 7 9 4 5 1019.1 1019.0 0.4
30/06:30pm 19.7 19.2 16.0 79 2.2 ESE 13 15 7 8 1018.7 1018.6 0.4
30/06:00pm 20.8 19.7 16.4 76 2.7 ESE 17 22 9 12 1018.4 1018.3 0.4
30/05:30pm 21.4 19.8 16.1 72 3.2 ESE 19 24 10 13 1018.0 1017.9 0.4
30/05:00pm 22.4 20.5 15.7 66 4.0 ESE 20 28 11 15 1017.7 1017.6 0.4
30/04:30pm 23.3 20.3 15.9 63 4.5 ESE 26 33 14 18 1017.5 1017.4 0.4
30/04:00pm 23.8 20.8 15.8 61 4.8 ESE 26 33 14 18 1017.3 1017.2 0.4
30/03:30pm 23.9 22.2 17.2 66 4.1 ESE 22 32 12 17 1017.2 1017.1 0.4
30/03:00pm 22.1 24.5 18.7 81 2.1 SE 4 7 2 4 1017.3 1017.2 0.4
30/02:30pm 22.2 20.9 16.9 72 3.2 SE 19 28 10 15 1017.4 1017.3 0.2
30/02:00pm 24.4 24.0 16.1 60 5.1 SSE 13 19 7 10 1017.5 1017.4 0.0
30/01:30pm 24.4 22.9 16.4 61 4.9 SSE 19 28 10 15 1017.7 1017.6 0.0
30/01:00pm 25.1 23.5 16.5 59 5.3 SE 20 30 11 16 1017.8 1017.7 0.0
30/12:30pm 24.0 22.3 15.8 60 5.0 SSE 19 28 10 15 1018.1 1018.0 0.0
30/12:00pm 24.4 22.4 16.4 61 4.9 SE 22 33 12 18 1018.4 1018.3 0.0
30/11:30am 23.8 21.8 15.6 60 4.9 SE 20 28 11 15 1018.7 1018.6 0.0
30/11:00am 24.1 22.5 15.9 60 5.0 SSE 19 28 10 15 1019.2 1019.1 0.0
30/10:30am 23.9 22.3 15.1 58 5.3 SSE 17 26 9 14 1019.5 1019.4 0.0
30/10:00am 23.6 22.5 16.4 64 4.4 SSE 17 24 9 13 1019.8 1019.7 0.0
30/09:30am 22.2 20.7 15.3 65 4.1 SSE 17 22 9 12 1019.9 1019.8 0.0
30/09:00am 21.3 20.0 15.8 71 3.3 S 17 20 9 11 1020.3 1020.2 0.0
30/08:30am 20.1 19.6 15.9 77 2.5 SSW 13 17 7 9 1019.9 1019.8 0.0
30/08:00am 19.0 18.9 15.9 82 1.8 SSW 11 17 6 9 1019.8 1019.7 0.0
30/07:30am 17.0 16.5 15.0 88 1.2 SSW 11 15 6 8 1019.7 1019.6 0.0
30/07:00am 15.7 14.8 13.7 88 1.1 SSW 11 15 6 8 1019.1 1019.0 0.0
30/06:30am 15.4 14.5 13.6 89 1.0 SSW 11 15 6 8 1018.9 1018.8 0.0
30/06:00am 14.9 14.2 13.3 90 0.9 SW 9 13 5 7 1018.6 1018.5 0.0
30/05:30am 15.0 14.3 13.2 89 1.0 SW 9 11 5 6 1018.2 1018.1 0.0
30/05:00am 15.1 14.4 13.3 89 1.0 SW 9 13 5 7 1018.0 1017.9 0.0
30/04:30am 15.2 14.2 13.4 89 1.0 SW 11 13 6 7 1017.9 1017.8 0.0
30/04:00am 15.6 14.7 13.6 88 1.1 SSW 11 15 6 8 1017.7 1017.6 0.0
30/03:30am 15.4 14.5 13.6 89 1.0 SSW 11 13 6 7 1017.5 1017.4 0.0
30/03:00am 15.1 14.4 13.3 89 1.0 SSW 9 13 5 7 1017.5 1017.4 0.0
30/02:30am 15.6 14.7 13.6 88 1.1 SSW 11 15 6 8 1017.4 1017.3 0.0
30/02:00am 15.3 14.3 13.5 89 1.0 SSW 11 13 6 7 1017.5 1017.4 0.0
30/01:30am 15.4 14.4 13.4 88 1.1 S 11 13 6 7 1017.6 1017.5 0.0
30/01:00am 15.6 14.7 13.6 88 1.1 SSW 11 13 6 7 1017.8 1017.7 0.0
30/12:30am 15.8 14.9 13.8 88 1.1 SSW 11 15 6 8 1017.9 1017.8 0.0
30/12:00am 15.9 15.0 13.7 87 1.2 SSW 11 15 6 8 1018.0 1017.9 0.0
 
Date/Time
EST
Temp
°C
App
Temp
°C
Dew
Point
°C
Rel
Hum
%
Delta-T
°C
Wind Press
QNH
hPa
Press
MSL
hPa
Rain since
9am
mm
Dir  Spd
km/h
Gust
km/h
Spd
kts
Gust
kts
29/11:30pm 16.0 15.1 13.7 86 1.3 SSW 11 13 6 7 1018.2 1018.1 0.0
29/11:00pm 15.9 15.0 13.6 86 1.3 SSW 11 13 6 7 1018.4 1018.3 0.0
29/10:30pm 16.3 15.3 13.4 83 1.6 S 11 17 6 9 1018.6 1018.5 0.0
29/10:00pm 17.3 16.2 14.2 82 1.8 S 13 19 7 10 1018.5 1018.4 0.0
29/09:30pm 17.7 17.0 14.4 81 1.9 SSE 11 17 6 9 1018.5 1018.4 0.0
29/09:00pm 17.6 17.3 14.3 81 1.9 SSE 9 13 5 7 1018.4 1018.3 0.0
29/08:30pm 18.1 17.4 14.4 79 2.1 SSE 11 15 6 8 1018.3 1018.2 0.0
29/08:00pm 18.6 18.1 14.9 79 2.2 SSE 11 15 6 8 1018.2 1018.1 0.0
29/07:30pm 18.7 18.0 14.4 76 2.5 SSE 11 15 6 8 1018.0 1017.9 0.0
29/07:00pm 18.4 17.8 13.5 73 2.8 ESE 9 11 5 6 1017.7 1017.6 0.0
29/06:30pm 19.0 17.7 13.8 72 3.0 ESE 13 17 7 9 1017.5 1017.4 0.0
29/06:00pm 20.0 19.3 15.4 75 2.7 E 13 17 7 9 1017.3 1017.2 0.0
29/05:30pm 21.0 20.1 15.8 72 3.1 E 15 17 8 9 1017.0 1016.9 0.0
29/05:00pm 22.4 21.0 15.5 65 4.1 E 17 24 9 13 1016.8 1016.7 0.0
29/04:30pm 23.4 21.6 15.5 61 4.8 E 19 26 10 14 1016.6 1016.5 0.0
29/04:00pm 24.1 22.1 15.6 59 5.1 E 20 24 11 13 1016.4 1016.3 0.0
29/03:30pm 24.7 22.6 15.1 55 5.8 E 20 28 11 15 1016.3 1016.2 0.0
29/03:00pm 25.2 23.8 15.5 55 5.9 ESE 17 26 9 14 1016.3 1016.2 0.0
29/02:30pm 25.7 23.6 15.1 52 6.4 E 20 26 11 14 1016.2 1016.1 0.0
29/02:00pm 25.1 22.6 13.6 49 6.7 SSE 19 28 10 15 1016.4 1016.3 0.0
29/01:30pm 25.7 24.2 14.2 49 6.8 S 15 20 8 11 1016.7 1016.6 0.0
29/01:00pm 25.5 23.4 14.6 51 6.5 SSE 19 26 10 14 1016.9 1016.8 0.0
29/12:30pm 25.1 22.7 14.3 51 6.4 SE 20 30 11 16 1017.4 1017.3 0.0
29/12:00pm 24.9 22.6 14.1 51 6.4 SSE 19 28 10 15 1017.6 1017.5 0.0
29/11:30am 24.6 22.3 14.7 54 5.9 SSE 20 30 11 16 1018.0 1017.9 0.0
29/11:00am 24.6 21.9 14.7 54 5.9 SSE 22 33 12 18 1018.5 1018.4 0.0
29/10:30am 23.9 20.8 14.6 56 5.5 SSE 24 37 13 20 1018.7 1018.6 0.0
29/10:00am 23.2 21.1 14.7 58 5.0 S 19 28 10 15 1018.9 1018.8 0.0
29/09:30am 21.8 19.1 13.4 59 4.8 SSE 20 32 11 17 1018.9 1018.8 0.0
29/09:00am 21.0 18.0 13.7 63 4.2 S 22 32 12 17 1018.9 1018.8 0.0
29/08:30am 19.8 17.5 13.0 65 3.9 SSW 17 28 9 15 1018.6 1018.5 0.0
29/08:00am 17.6 15.9 12.5 72 2.8 SW 13 20 7 11 1018.5 1018.4 0.0
29/07:30am 16.6 14.4 12.0 74 2.5 SW 15 20 8 11 1018.3 1018.2 0.0
29/07:00am 16.0 14.3 12.4 79 2.0 SW 13 17 7 9 1017.8 1017.7 0.0
29/06:30am 14.9 13.0 11.7 81 1.7 SW 13 15 7 8 1017.4 1017.3 0.0
29/06:00am 14.9 13.2 11.3 79 1.9 SW 11 17 6 9 1017.0 1016.9 0.0
29/05:30am 14.9 13.2 11.3 79 1.9 SW 11 13 6 7 1016.6 1016.5 0.0
29/05:00am 15.9 14.3 11.7 76 2.3 SW 11 15 6 8 1016.2 1016.1 0.0
29/04:30am 14.7 13.4 11.1 79 1.9 SW 9 13 5 7 1016.0 1015.9 0.0
29/04:00am 15.0 13.2 10.8 76 2.2 SW 11 15 6 8 1016.0 1015.9 0.0
29/03:30am 15.6 13.8 10.8 73 2.6 SW 11 13 6 7 1016.0 1015.9 0.0
29/03:00am 15.7 14.4 11.1 74 2.5 SSW 9 15 5 8 1016.0 1015.9 0.0
29/02:30am 15.4 14.1 11.2 76 2.2 SW 9 13 5 7 1016.0 1015.9 0.0
29/02:00am 15.6 14.2 11.0 74 2.5 SSW 9 13 5 7 1016.0 1015.9 0.0
29/01:30am 15.5 14.2 11.1 75 2.4 S 9 13 5 7 1016.3 1016.2 0.0
29/01:00am 15.8 14.0 11.0 73 2.6 S 11 17 6 9 1016.4 1016.3 0.0
29/12:30am 15.8 14.2 11.4 75 2.4 S 11 13 6 7 1016.6 1016.5 0.0
29/12:00am 16.2 14.9 11.4 73 2.6 SSW 9 11 5 6 1017.0 1016.9 0.0
 
Date/Time
EST
Temp
°C
App
Temp
°C
Dew
Point
°C
Rel
Hum
%
Delta-T
°C
Wind Press
QNH
hPa
Press
MSL
hPa
Rain since
9am
mm
Dir  Spd
km/h
Gust
km/h
Spd
kts
Gust
kts
28/11:30pm 15.9 14.7 11.5 75 2.4 SSW 9 13 5 7 1017.1 1017.0 0.0
28/11:00pm 16.2 14.7 10.7 70 2.9 SSW 9 11 5 6 1017.0 1016.9 0.0
28/10:30pm 16.2 14.8 10.9 71 2.8 SW 9 13 5 7 1017.0 1016.9 0.0
28/10:00pm 16.7 15.1 11.6 72 2.8 SSW 11 13 6 7 1017.0 1016.9 0.0
28/09:30pm 16.7 14.9 10.8 68 3.2 SSW 11 13 6 7 1017.1 1017.0 0.0
28/09:00pm 16.5 15.1 11.0 70 2.9 S 9 11 5 6 1017.0 1016.9 0.0
28/08:30pm 16.1 15.0 10.8 71 2.8 WSW 7 7 4 4 1016.7 1016.6 0.0
28/08:00pm 17.1 16.0 10.7 66 3.4 SW 7 11 4 6 1016.5 1016.4 0.0
28/07:30pm 17.0 15.8 11.5 70 3.0 WSW 9 11 5 6 1016.3 1016.2 0.0
28/07:00pm 15.9 15.0 11.3 74 2.5 WSW 7 9 4 5 1016.0 1015.9 0.0
28/06:30pm 18.1 17.2 11.4 65 3.7 SW 7 9 4 5 1015.9 1015.8 0.0
28/06:00pm 18.8 17.8 11.1 61 4.2 SW 7 9 4 5 1015.5 1015.4 0.0
28/05:30pm 20.2 18.7 10.6 54 5.2 SSW 9 11 5 6 1015.1 1015.0 0.0
28/05:00pm 21.7 20.1 10.2 48 6.3 SSW 9 13 5 7 1014.7 1014.6 0.0
28/04:30pm 22.8 21.2 10.3 45 6.9 SSW 9 13 5 7 1014.6 1014.5 0.0
28/04:00pm 22.9 20.7 9.3 42 7.3 S 11 17 6 9 1014.4 1014.3 0.0
28/03:30pm 23.4 20.9 9.8 42 7.4 S 13 19 7 10 1014.2 1014.1 0.0
28/03:00pm 23.6 21.2 9.9 42 7.5 S 13 19 7 10 1014.3 1014.2 0.0
28/02:30pm 23.0 19.9 9.0 41 7.5 SSE 15 24 8 13 1014.3 1014.2 0.0
28/02:00pm 23.4 20.2 9.8 42 7.4 S 17 26 9 14 1014.3 1014.2 0.0
28/01:30pm 23.1 20.2 9.8 43 7.2 SSE 15 28 8 15 1014.5 1014.4 0.0
28/01:00pm 23.0 20.3 10.4 45 6.9 S 15 26 8 14 1014.7 1014.6 0.0
28/12:30pm 22.0 19.4 9.2 44 6.9 SSW 13 20 7 11 1014.9 1014.8 0.0
28/12:00pm 21.8 18.8 9.3 45 6.7 S 15 24 8 13 1015.3 1015.2 0.0
28/11:30am 20.8 17.3 8.8 46 6.3 SSW 17 30 9 16 1015.7 1015.6 0.0
28/11:00am 20.4 16.8 8.4 46 6.3 S 17 24 9 13 1016.5 1016.4 0.0
28/10:30am 19.3 15.2 7.7 47 5.9 SSW 19 26 10 14 1016.8 1016.7 0.0
28/10:00am 18.2 13.8 6.4 46 5.8 SSW 19 24 10 13 1017.1 1017.0 0.0
28/09:30am 17.3 12.6 6.2 48 5.4 SW 20 28 11 15 1017.0 1016.9 0.0
28/09:00am 16.3 11.8 6.2 51 4.9 SW 19 26 10 14 1017.0 1016.9 0.0
28/08:30am 15.0 10.2 5.5 53 4.5 SW 20 28 11 15 1017.0 1016.9 0.0
28/08:00am 13.8 8.9 4.9 55 4.1 SW 20 28 11 15 1016.6 1016.5 0.0
28/07:30am 12.9 7.9 4.8 58 3.7 SW 20 32 11 17 1016.3 1016.2 0.0
28/07:00am 11.9 7.0 4.2 59 3.5 SW 19 26 10 14 1016.0 1015.9 0.0
28/06:30am 11.3 6.8 4.3 62 3.1 SW 17 26 9 14 1015.7 1015.6 0.0
28/06:00am 11.2 6.7 4.2 62 3.1 SW 17 24 9 13 1015.4 1015.3 0.0
28/05:30am 11.0 6.9 4.5 64 2.9 SW 15 24 8 13 1015.1 1015.0 0.0
28/05:00am 11.1 7.0 4.3 63 3.0 SW 15 20 8 11 1015.0 1014.9 0.0
28/04:30am 11.1 7.4 4.3 63 3.1 SW 13 19 7 10 1014.8 1014.7 0.0
28/04:00am 11.3 7.6 4.3 62 3.1 WSW 13 19 7 10 1014.8 1014.7 0.0
28/03:30am 11.4 7.7 4.2 61 3.2 SW 13 19 7 10 1015.0 1014.9 0.0
28/03:00am 11.8 8.0 4.1 59 3.5 WSW 13 19 7 10 1015.1 1015.0 0.0
28/02:30am 12.1 7.6 4.3 59 3.5 WSW 17 24 9 13 1015.4 1015.3 0.0
28/02:00am 12.7 7.8 3.9 55 4.0 SW 19 28 10 15 1015.7 1015.6 0.0
28/01:30am 13.4 7.5 4.0 53 4.3 SW 24 35 13 19 1015.5 1015.4 0.0
28/01:00am 13.6 9.4 3.9 52 4.4 SW 15 22 8 12 1015.9 1015.8 0.0
28/12:30am 13.3 10.0 4.5 55 4.0 SW 11 19 6 10 1016.1 1016.0 0.0
28/12:00am 13.1 10.2 4.5 56 3.9 SW 9 13 5 7 1016.1 1016.0 0.0
 
Date/Time
EST
Temp
°C
App
Temp
°C
Dew
Point
°C
Rel
Hum
%
Delta-T
°C
Wind Press
QNH
hPa
Press
MSL
hPa
Rain since
9am
mm
Dir  Spd
km/h
Gust
km/h
Spd
kts
Gust
kts
27/11:30pm 13.3 10.4 4.5 55 4.0 SW 9 13 5 7 1016.3 1016.2 0.0
27/11:00pm 14.3 10.6 4.6 52 4.5 SW 13 22 7 12 1016.2 1016.1 0.0

Other Formats:

Comma delimited format used in spreadsheet applications
http://www.bom.gov.au/fwo/IDQ60801/IDQ60801.94387.axf

JavaScript Object Notation format (JSON) in row-major order
http://www.bom.gov.au/fwo/IDQ60801/IDQ60801.94387.json